sensor_id;sensor_type;location;lat;lon;timestamp;P1;P2;P0
57798;PMS7003;43626;53.866;30.298;2023-08-08T00:00:36;195;195;194
57798;PMS7003;43626;53.866;30.298;2023-08-08T00:05:46;200.6;198.6;197.2
57798;PMS7003;43626;53.866;30.298;2023-08-08T00:10:54;205.4;204.6;203.8
57798;PMS7003;43626;53.866;30.298;2023-08-08T00:15:22;197.4;195.8;194.8
57798;PMS7003;43626;53.866;30.298;2023-08-08T00:20:22;201.8;200.8;200.2
57798;PMS7003;43626;53.866;30.298;2023-08-08T00:25:46;202.6;200.6;199.8
57798;PMS7003;43626;53.866;30.298;2023-08-08T00:30:46;198.3;196.8;195
57798;PMS7003;43626;53.866;30.298;2023-08-08T00:35:36;193.6;189.6;188.6
57798;PMS7003;43626;53.866;30.298;2023-08-08T00:40:52;194.2;192.4;191.2
57798;PMS7003;43626;53.866;30.298;2023-08-08T00:46:02;194.2;191.8;190.4
57798;PMS7003;43626;53.866;30.298;2023-08-08T00:50:30;178.4;175.6;174.8
57798;PMS7003;43626;53.866;30.298;2023-08-08T00:55:22;186;185.4;184.6
57798;PMS7003;43626;53.866;30.298;2023-08-08T01:01:02;188.8;186.2;185.4
57798;PMS7003;43626;53.866;30.298;2023-08-08T01:05:38;186.2;183.4;182.2
57798;PMS7003;43626;53.866;30.298;2023-08-08T01:10:36;198.4;197.4;196.2
57798;PMS7003;43626;53.866;30.298;2023-08-08T01:15:22;198;196.4;195.4
57798;PMS7003;43626;53.866;30.298;2023-08-08T01:20:40;199.2;198.4;197.4
57798;PMS7003;43626;53.866;30.298;2023-08-08T01:25:22;187.2;185;184
57798;PMS7003;43626;53.866;30.298;2023-08-08T01:30:28;188;186.3;185.3
57798;PMS7003;43626;53.866;30.298;2023-08-08T01:35:56;189;187.4;186.2
57798;PMS7003;43626;53.866;30.298;2023-08-08T01:40:52;191.8;191.4;190.4
57798;PMS7003;43626;53.866;30.298;2023-08-08T01:45:36;187;183.8;182.8
57798;PMS7003;43626;53.866;30.298;2023-08-08T01:50:22;196.8;196.2;195.8
57798;PMS7003;43626;53.866;30.298;2023-08-08T01:56:02;194.8;193.2;192.2
57798;PMS7003;43626;53.866;30.298;2023-08-08T02:00:28;189.8;187.6;186.2
57798;PMS7003;43626;53.866;30.298;2023-08-08T02:05:28;172.4;169.4;168.6
57798;PMS7003;43626;53.866;30.298;2023-08-08T02:10:52;196.4;195.2;194.2
57798;PMS7003;43626;53.866;30.298;2023-08-08T02:15:52;190;188.6;187.6
57798;PMS7003;43626;53.866;30.298;2023-08-08T02:21:02;179.8;177;175.4
57798;PMS7003;43626;53.866;30.298;2023-08-08T02:25:42;173.6;171.2;169.8
57798;PMS7003;43626;53.866;30.298;2023-08-08T02:30:28;162;158.3;156.8
57798;PMS7003;43626;53.866;30.298;2023-08-08T02:35:28;199.4;197;195.8
57798;PMS7003;43626;53.866;30.298;2023-08-08T02:41:02;212.4;211.8;210.8
57798;PMS7003;43626;53.866;30.298;2023-08-08T02:45:52;227.8;225.6;224.4
57798;PMS7003;43626;53.866;30.298;2023-08-08T02:50:50;236.4;236.2;235
57798;PMS7003;43626;53.866;30.298;2023-08-08T02:56:02;237.4;236.6;235.2
57798;PMS7003;43626;53.866;30.298;2023-08-08T03:00:44;243;241.6;240.2
57798;PMS7003;43626;53.866;30.298;2023-08-08T03:05:43;260.2;259.2;257.8
57798;PMS7003;43626;53.866;30.298;2023-08-08T03:10:28;266.2;265.8;264.4
57798;PMS7003;43626;53.866;30.298;2023-08-08T03:16:02;265.6;264.6;263.2
57798;PMS7003;43626;53.866;30.298;2023-08-08T03:21:02;275;274;273
57798;PMS7003;43626;53.866;30.298;2023-08-08T03:26:02;272.8;271.6;270.4
57798;PMS7003;43626;53.866;30.298;2023-08-08T03:31:02;267.2;266.2;265.4
57798;PMS7003;43626;53.866;30.298;2023-08-08T03:35:52;264.8;264.3;263.3
57798;PMS7003;43626;53.866;30.298;2023-08-08T03:40:36;238.8;238.4;237.2
57798;PMS7003;43626;53.866;30.298;2023-08-08T03:45:52;233.2;232.4;231.2
57798;PMS7003;43626;53.866;30.298;2023-08-08T03:51:02;217.2;214.6;213.2
57798;PMS7003;43626;53.866;30.298;2023-08-08T03:55:38;225.6;224.6;222.8
57798;PMS7003;43626;53.866;30.298;2023-08-08T04:00:34;205.4;204.4;202
57798;PMS7003;43626;53.866;30.298;2023-08-08T04:06:02;205.2;202.8;201
57798;PMS7003;43626;53.866;30.298;2023-08-08T04:10:28;169.6;165.8;164.2
57798;PMS7003;43626;53.866;30.298;2023-08-08T04:16:02;167.8;164.6;162.6
57798;PMS7003;43626;53.866;30.298;2023-08-08T04:20:36;163.8;161.4;159.2
57798;PMS7003;43626;53.866;30.298;2023-08-08T04:25:46;163;159;156.2
57798;PMS7003;43626;53.866;30.298;2023-08-08T04:30:46;135.6;129.8;127
57798;PMS7003;43626;53.866;30.298;2023-08-08T04:35:52;154.3;148.5;145.8
57798;PMS7003;43626;53.866;30.298;2023-08-08T04:40:42;144.4;140;137.4
57798;PMS7003;43626;53.866;30.298;2023-08-08T04:45:28;112;104.2;100.4
57798;PMS7003;43626;53.866;30.298;2023-08-08T04:50:46;154.2;148.8;146.4
57798;PMS7003;43626;53.866;30.298;2023-08-08T04:55:36;132.4;128.4;125.6
57798;PMS7003;43626;53.866;30.298;2023-08-08T05:00:22;114.8;106.2;102.6
57798;PMS7003;43626;53.866;30.298;2023-08-08T05:05:52;142;140;136.4
57798;PMS7003;43626;53.866;30.298;2023-08-08T05:10:36;115.4;110.6;107
57798;PMS7003;43626;53.866;30.298;2023-08-08T05:15:22;108.8;102.6;100.2
57798;PMS7003;43626;53.866;30.298;2023-08-08T05:20:38;149;146.8;143.4
57798;PMS7003;43626;53.866;30.298;2023-08-08T05:26:00;131.8;129.6;126.8
57798;PMS7003;43626;53.866;30.298;2023-08-08T05:30:36;119.2;113.6;110
57798;PMS7003;43626;53.866;30.298;2023-08-08T05:35:36;136.5;131;128.8
57798;PMS7003;43626;53.866;30.298;2023-08-08T05:40:42;133.4;129.8;127.6
57798;PMS7003;43626;53.866;30.298;2023-08-08T05:45:52;129.8;126.4;122.8
57798;PMS7003;43626;53.866;30.298;2023-08-08T05:50:22;140.6;138;135.6
57798;PMS7003;43626;53.866;30.298;2023-08-08T05:55:28;122.4;120;118
57798;PMS7003;43626;53.866;30.298;2023-08-08T06:01:00;136.8;136;133.2
57798;PMS7003;43626;53.866;30.298;2023-08-08T06:05:44;137.6;136.6;135.2
57798;PMS7003;43626;53.866;30.298;2023-08-08T06:10:36;138.8;138.8;136.2
57798;PMS7003;43626;53.866;30.298;2023-08-08T06:15:46;139.2;138.6;136.6
57798;PMS7003;43626;53.866;30.298;2023-08-08T06:21:00;137.2;136.2;134.2
57798;PMS7003;43626;53.866;30.298;2023-08-08T06:25:32;139;139;137
57798;PMS7003;43626;53.866;30.298;2023-08-08T06:30:30;134;133.6;131.2
57798;PMS7003;43626;53.866;30.298;2023-08-08T06:35:52;141;140;137.8
57798;PMS7003;43626;53.866;30.298;2023-08-08T06:40:52;121.2;120.8;119
57798;PMS7003;43626;53.866;30.298;2023-08-08T06:45:58;130.6;130;128.2
57798;PMS7003;43626;53.866;30.298;2023-08-08T06:50:42;137.6;137.2;135
57798;PMS7003;43626;53.866;30.298;2023-08-08T06:55:36;141.6;141;138
57798;PMS7003;43626;53.866;30.298;2023-08-08T07:00:34;145;144;141.4
57798;PMS7003;43626;53.866;30.298;2023-08-08T07:06:00;152.4;152.4;149.4
57798;PMS7003;43626;53.866;30.298;2023-08-08T07:10:36;137.8;137.2;135.4
57798;PMS7003;43626;53.866;30.298;2023-08-08T07:15:50;148;147.6;145.6
57798;PMS7003;43626;53.866;30.298;2023-08-08T07:20:58;143.8;142.6;140.6
57798;PMS7003;43626;53.866;30.298;2023-08-08T07:25:52;153.6;153.2;151.2
57798;PMS7003;43626;53.866;30.298;2023-08-08T07:30:22;146.6;146.6;144.8
57798;PMS7003;43626;53.866;30.298;2023-08-08T07:35:38;157.8;156.5;154.8
57798;PMS7003;43626;53.866;30.298;2023-08-08T07:41:02;171;170.6;168.8
57798;PMS7003;43626;53.866;30.298;2023-08-08T07:46:02;167.2;166.8;165.2
57798;PMS7003;43626;53.866;30.298;2023-08-08T07:50:52;169.2;169;167
57798;PMS7003;43626;53.866;30.298;2023-08-08T07:56:02;167.8;167.4;165.8
57798;PMS7003;43626;53.866;30.298;2023-08-08T08:00:52;167.4;167;165
57798;PMS7003;43626;53.866;30.298;2023-08-08T08:05:36;158.4;156.2;154.8
57798;PMS7003;43626;53.866;30.298;2023-08-08T08:10:52;167.2;166.4;164.4
57798;PMS7003;43626;53.866;30.298;2023-08-08T08:16:02;170;169.4;167.8
57798;PMS7003;43626;53.866;30.298;2023-08-08T08:20:46;171.4;170.6;169.6
57798;PMS7003;43626;53.866;30.298;2023-08-08T08:25:50;172;172;170.6
57798;PMS7003;43626;53.866;30.298;2023-08-08T08:31:03;169.6;169.2;168
57798;PMS7003;43626;53.866;30.298;2023-08-08T08:35:22;163.6;163;159.4
57798;PMS7003;43626;53.866;30.298;2023-08-08T08:40:22;160.5;160.3;158
57798;PMS7003;43626;53.866;30.298;2023-08-08T08:45:37;160.2;160;157.2
57798;PMS7003;43626;53.866;30.298;2023-08-08T08:50:47;159.4;159.4;157
57798;PMS7003;43626;53.866;30.298;2023-08-08T08:55:46;146;145.4;141.6
57798;PMS7003;43626;53.866;30.298;2023-08-08T09:00:30;162.8;162;159.6
57798;PMS7003;43626;53.866;30.298;2023-08-08T09:05:22;161;160;157.8
57798;PMS7003;43626;53.866;30.298;2023-08-08T09:10:44;197;196.6;194.6
57798;PMS7003;43626;53.866;30.298;2023-08-08T09:15:36;184;182.6;180.2
57798;PMS7003;43626;53.866;30.298;2023-08-08T09:20:36;172.2;172;169
57798;PMS7003;43626;53.866;30.298;2023-08-08T09:25:36;179.6;179.4;176.6
57798;PMS7003;43626;53.866;30.298;2023-08-08T09:31:00;183.2;182.4;179.8
57798;PMS7003;43626;53.866;30.298;2023-08-08T09:36:02;177;176.4;174
57798;PMS7003;43626;53.866;30.298;2023-08-08T09:40:36;174.5;173.5;171.3
57798;PMS7003;43626;53.866;30.298;2023-08-08T09:45:35;222.2;221.2;218.2
57798;PMS7003;43626;53.866;30.298;2023-08-08T09:50:38;241;240.6;238.2
57798;PMS7003;43626;53.866;30.298;2023-08-08T09:55:52;227.8;227.4;221.6
57798;PMS7003;43626;53.866;30.298;2023-08-08T10:00:30;212;211.4;208.2
57798;PMS7003;43626;53.866;30.298;2023-08-08T10:05:53;235.4;234.6;232
57798;PMS7003;43626;53.866;30.298;2023-08-08T10:11:02;210.2;209.8;206.6
57798;PMS7003;43626;53.866;30.298;2023-08-08T10:15:36;186.8;186.4;181.2
57798;PMS7003;43626;53.866;30.298;2023-08-08T10:20:23;183.6;183.4;177.4
57798;PMS7003;43626;53.866;30.298;2023-08-08T10:26:02;178.2;177.8;171.2
57798;PMS7003;43626;53.866;30.298;2023-08-08T10:30:41;172.6;172.6;166.2
57798;PMS7003;43626;53.866;30.298;2023-08-08T10:35:34;165.4;164.8;158.4
57798;PMS7003;43626;53.866;30.298;2023-08-08T10:40:23;165.3;164.5;158.5
57798;PMS7003;43626;53.866;30.298;2023-08-08T10:45:52;161.4;160.6;155
57798;PMS7003;43626;53.866;30.298;2023-08-08T10:50:22;161.8;161.6;154.6
57798;PMS7003;43626;53.866;30.298;2023-08-08T10:55:42;162.8;162.2;155.4
57798;PMS7003;43626;53.866;30.298;2023-08-08T11:01:02;167;166.2;158.2
57798;PMS7003;43626;53.866;30.298;2023-08-08T11:05:52;160.8;159.8;152.6
57798;PMS7003;43626;53.866;30.298;2023-08-08T11:10:28;157.4;157.2;150.2
57798;PMS7003;43626;53.866;30.298;2023-08-08T11:15:42;156.8;156.6;147.8
57798;PMS7003;43626;53.866;30.298;2023-08-08T11:21:09;167.6;167.2;159.2
57798;PMS7003;43626;53.866;30.298;2023-08-08T11:25:30;181.8;181.4;172
57798;PMS7003;43626;53.866;30.298;2023-08-08T11:30:45;180.2;179;170.6
57798;PMS7003;43626;53.866;30.298;2023-08-08T11:35:52;176.4;175.2;166.4
57798;PMS7003;43626;53.866;30.298;2023-08-08T11:40:25;165;164.8;157
57798;PMS7003;43626;53.866;30.298;2023-08-08T11:46:02;158.8;158.6;151
57798;PMS7003;43626;53.866;30.298;2023-08-08T11:50:23;151.6;151.4;142.8
57798;PMS7003;43626;53.866;30.298;2023-08-08T11:55:29;158.4;157.6;148.8
57798;PMS7003;43626;53.866;30.298;2023-08-08T12:00:36;171.8;171.6;161.2
57798;PMS7003;43626;53.866;30.298;2023-08-08T12:06:02;174;173.2;162.8
57798;PMS7003;43626;53.866;30.298;2023-08-08T12:10:52;163;162.2;151.8
57798;PMS7003;43626;53.866;30.298;2023-08-08T12:15:52;163.6;163;154.6
57798;PMS7003;43626;53.866;30.298;2023-08-08T12:20:52;161.6;161.2;151.8
57798;PMS7003;43626;53.866;30.298;2023-08-08T12:25:52;167.4;166.6;157.6
57798;PMS7003;43626;53.866;30.298;2023-08-08T12:30:23;153.4;152.8;142.6
57798;PMS7003;43626;53.866;30.298;2023-08-08T12:35:52;151.2;149.8;141.4
57798;PMS7003;43626;53.866;30.298;2023-08-08T12:41:02;151.5;151.3;143.3
57798;PMS7003;43626;53.866;30.298;2023-08-08T12:45:46;155.6;155.2;147
57798;PMS7003;43626;53.866;30.298;2023-08-08T12:50:22;144;143.4;135
57798;PMS7003;43626;53.866;30.298;2023-08-08T12:56:02;153.4;152.4;143.6
57798;PMS7003;43626;53.866;30.298;2023-08-08T13:00:28;158.8;157.6;148
57798;PMS7003;43626;53.866;30.298;2023-08-08T13:05:30;171;170.8;159.2
57798;PMS7003;43626;53.866;30.298;2023-08-08T13:10:30;160.2;159.6;151.6
57798;PMS7003;43626;53.866;30.298;2023-08-08T13:15:46;161.8;160.4;151.2
57798;PMS7003;43626;53.866;30.298;2023-08-08T13:20:46;160.4;159.4;150.2
57798;PMS7003;43626;53.866;30.298;2023-08-08T13:25:46;159;158.6;148.6
57798;PMS7003;43626;53.866;30.298;2023-08-08T13:30:42;173.8;173.8;163.6
57798;PMS7003;43626;53.866;30.298;2023-08-08T13:35:52;172.2;170.8;157.2
57798;PMS7003;43626;53.866;30.298;2023-08-08T13:40:22;174.6;174.2;162
57798;PMS7003;43626;53.866;30.298;2023-08-08T13:45:28;174.3;174.3;161.8
57798;PMS7003;43626;53.866;30.298;2023-08-08T13:50:36;176.2;175.2;163.6
57798;PMS7003;43626;53.866;30.298;2023-08-08T13:55:46;171.2;171;159.6
57798;PMS7003;43626;53.866;30.298;2023-08-08T14:01:00;168.4;167.6;157.6
57798;PMS7003;43626;53.866;30.298;2023-08-08T14:05:22;159.8;159.4;150.6
57798;PMS7003;43626;53.866;30.298;2023-08-08T14:10:22;150.6;150.2;142.6
57798;PMS7003;43626;53.866;30.298;2023-08-08T14:15:46;147;146.6;139.2
57798;PMS7003;43626;53.866;30.298;2023-08-08T14:20:37;145.6;144;137.6
57798;PMS7003;43626;53.866;30.298;2023-08-08T14:25:34;150;149.8;142.4
57798;PMS7003;43626;53.866;30.298;2023-08-08T14:30:52;149.4;148.6;142.2
57798;PMS7003;43626;53.866;30.298;2023-08-08T14:36:00;153.2;152.8;145.6
57798;PMS7003;43626;53.866;30.298;2023-08-08T14:40:28;153.4;153;143.8
57798;PMS7003;43626;53.866;30.298;2023-08-08T14:45:36;153.3;152.8;143.8
57798;PMS7003;43626;53.866;30.298;2023-08-08T14:51:01;159.4;158.4;149.4
57798;PMS7003;43626;53.866;30.298;2023-08-08T14:55:36;161;160.4;150.6
57798;PMS7003;43626;53.866;30.298;2023-08-08T15:00:36;160.2;159.6;149.8
57798;PMS7003;43626;53.866;30.298;2023-08-08T15:05:36;165.4;165;157
57798;PMS7003;43626;53.866;30.298;2023-08-08T15:10:52;169;168.6;163.2
57798;PMS7003;43626;53.866;30.298;2023-08-08T15:15:22;182.2;181.6;177.6
57798;PMS7003;43626;53.866;30.298;2023-08-08T15:20:22;180.2;179.8;175.8
57798;PMS7003;43626;53.866;30.298;2023-08-08T15:26:00;176.2;175.8;170.4
57798;PMS7003;43626;53.866;30.298;2023-08-08T15:30:52;182.6;182;175.2
57798;PMS7003;43626;53.866;30.298;2023-08-08T15:35:30;174.2;173;163
57798;PMS7003;43626;53.866;30.298;2023-08-08T15:40:22;179.4;178.6;171.4
57798;PMS7003;43626;53.866;30.298;2023-08-08T15:46:00;176.3;175;168
57798;PMS7003;43626;53.866;30.298;2023-08-08T15:50:22;179.6;178.8;172.6
57798;PMS7003;43626;53.866;30.298;2023-08-08T15:55:37;173;172.2;165.6
57798;PMS7003;43626;53.866;30.298;2023-08-08T16:00:52;167.6;167;158.4
57798;PMS7003;43626;53.866;30.298;2023-08-08T16:05:52;177.8;177.4;170.4
57798;PMS7003;43626;53.866;30.298;2023-08-08T16:11:01;172.2;171.4;164
57798;PMS7003;43626;53.866;30.298;2023-08-08T16:15:42;180.2;179.8;173.2
57798;PMS7003;43626;53.866;30.298;2023-08-08T16:20:42;184.4;183.2;176
57798;PMS7003;43626;53.866;30.298;2023-08-08T16:25:36;205;204.2;199.8
57798;PMS7003;43626;53.866;30.298;2023-08-08T16:31:00;195.2;194.6;188.4
57798;PMS7003;43626;53.866;30.298;2023-08-08T16:36:00;192.2;190.4;182.8
57798;PMS7003;43626;53.866;30.298;2023-08-08T16:41:00;205.8;203.6;191.4
57798;PMS7003;43626;53.866;30.298;2023-08-08T16:46:00;215.5;214;201.3
57798;PMS7003;43626;53.866;30.298;2023-08-08T16:50:52;210.4;206.8;185.4
57798;PMS7003;43626;53.866;30.298;2023-08-08T16:55:32;177.6;176;167.4
57798;PMS7003;43626;53.866;30.298;2023-08-08T17:00:52;175.8;174.6;166.2
57798;PMS7003;43626;53.866;30.298;2023-08-08T17:06:02;177.2;176.4;170.2
57798;PMS7003;43626;53.866;30.298;2023-08-08T17:10:46;175.8;174.8;169
57798;PMS7003;43626;53.866;30.298;2023-08-08T17:15:28;171.2;170.8;166.8
57798;PMS7003;43626;53.866;30.298;2023-08-08T17:21:02;172.2;171.4;166.4
57798;PMS7003;43626;53.866;30.298;2023-08-08T17:25:46;162.2;161.2;157
57798;PMS7003;43626;53.866;30.298;2023-08-08T17:30:29;158.7;156.7;151.3
57798;PMS7003;43626;53.866;30.298;2023-08-08T17:35:22;156.8;155.8;151.6
57798;PMS7003;43626;53.866;30.298;2023-08-08T17:40:44;158;157.6;154.2
57798;PMS7003;43626;53.866;30.298;2023-08-08T17:46:02;162.6;161.6;156.4
57798;PMS7003;43626;53.866;30.298;2023-08-08T17:50:52;159.6;159;155
57798;PMS7003;43626;53.866;30.298;2023-08-08T17:55:36;154.2;152.6;149.2
57798;PMS7003;43626;53.866;30.298;2023-08-08T18:00:23;167.8;166.2;161.8
57798;PMS7003;43626;53.866;30.298;2023-08-08T18:05:23;156;154.6;151.6
57798;PMS7003;43626;53.866;30.298;2023-08-08T18:10:31;151.8;151.2;147.6
57798;PMS7003;43626;53.866;30.298;2023-08-08T18:15:29;152.5;151.3;146
57798;PMS7003;43626;53.866;30.298;2023-08-08T18:20:32;160.2;158;152
57798;PMS7003;43626;53.866;30.298;2023-08-08T18:26:02;162;161.4;156.4
57798;PMS7003;43626;53.866;30.298;2023-08-08T18:30:42;171.8;171;168.2
57798;PMS7003;43626;53.866;30.298;2023-08-08T18:35:52;172.8;172.2;169.8
57798;PMS7003;43626;53.866;30.298;2023-08-08T18:40:46;172.4;171.2;168.8
57798;PMS7003;43626;53.866;30.298;2023-08-08T18:45:31;171.6;171.2;168.4
57798;PMS7003;43626;53.866;30.298;2023-08-08T18:50:37;160.4;159.6;156.6
57798;PMS7003;43626;53.866;30.298;2023-08-08T18:55:52;157.4;157;153.8
57798;PMS7003;43626;53.866;30.298;2023-08-08T19:01:03;154.6;153.4;150.6
57798;PMS7003;43626;53.866;30.298;2023-08-08T19:05:39;148.2;146.4;143.6
57798;PMS7003;43626;53.866;30.298;2023-08-08T19:10:43;142.4;141.6;139.6
57798;PMS7003;43626;53.866;30.298;2023-08-08T19:16:03;142.5;141.3;139
57798;PMS7003;43626;53.866;30.298;2023-08-08T19:20:29;138.6;138.2;135.8
57798;PMS7003;43626;53.866;30.298;2023-08-08T19:25:37;128.6;128.2;125.8
57798;PMS7003;43626;53.866;30.298;2023-08-08T19:30:43;123.8;122.8;120.2
57798;PMS7003;43626;53.866;30.298;2023-08-08T19:35:53;133.8;132.8;130
57798;PMS7003;43626;53.866;30.298;2023-08-08T19:40:23;142.2;141.4;138.6
57798;PMS7003;43626;53.866;30.298;2023-08-08T19:45:29;156.8;155.6;153
57798;PMS7003;43626;53.866;30.298;2023-08-08T19:51:03;146.6;145.8;142.8
57798;PMS7003;43626;53.866;30.298;2023-08-08T19:55:53;146.6;146.2;144
57798;PMS7003;43626;53.866;30.298;2023-08-08T20:00:37;131.4;128.8;126.2
57798;PMS7003;43626;53.866;30.298;2023-08-08T20:05:22;121.8;116.2;112.4
57798;PMS7003;43626;53.866;30.298;2023-08-08T20:11:03;119.2;112.4;109.6
57798;PMS7003;43626;53.866;30.298;2023-08-08T20:15:23;139.6;134.4;132
57798;PMS7003;43626;53.866;30.298;2023-08-08T20:20:23;140;137;134.5
57798;PMS7003;43626;53.866;30.298;2023-08-08T20:25:53;110.2;102.6;98.6
57798;PMS7003;43626;53.866;30.298;2023-08-08T20:30:53;121.6;117.6;115
57798;PMS7003;43626;53.866;30.298;2023-08-08T20:36:03;142.8;140;137.2
57798;PMS7003;43626;53.866;30.298;2023-08-08T20:40:47;143.2;140;137.4
57798;PMS7003;43626;53.866;30.298;2023-08-08T20:45:23;138.8;133.6;130.2
57798;PMS7003;43626;53.866;30.298;2023-08-08T20:50:29;151;147.4;143.6
57798;PMS7003;43626;53.866;30.298;2023-08-08T20:56:03;132.2;127.4;124.6
57798;PMS7003;43626;53.866;30.298;2023-08-08T21:00:53;149.2;147;144.2
57798;PMS7003;43626;53.866;30.298;2023-08-08T21:05:53;154.4;149.4;147.2
57798;PMS7003;43626;53.866;30.298;2023-08-08T21:11:03;157.6;154.4;151
57798;PMS7003;43626;53.866;30.298;2023-08-08T21:15:53;152.8;148.2;144.4
57798;PMS7003;43626;53.866;30.298;2023-08-08T21:20:23;157.8;155;151.5
57798;PMS7003;43626;53.866;30.298;2023-08-08T21:25:29;136;132.6;129.8
57798;PMS7003;43626;53.866;30.298;2023-08-08T21:31:03;144;141.6;137.8
57798;PMS7003;43626;53.866;30.298;2023-08-08T21:36:03;119.4;115;112
57798;PMS7003;43626;53.866;30.298;2023-08-08T21:41:03;152.4;148.4;145
57798;PMS7003;43626;53.866;30.298;2023-08-08T21:45:47;171;166.6;163.2
57798;PMS7003;43626;53.866;30.298;2023-08-08T21:50:53;177.2;174.6;171.4
57798;PMS7003;43626;53.866;30.298;2023-08-08T21:55:29;189.2;187;184
57798;PMS7003;43626;53.866;30.298;2023-08-08T22:00:53;205;202.2;198.4
57798;PMS7003;43626;53.866;30.298;2023-08-08T22:06:03;219;217.6;214.6
57798;PMS7003;43626;53.866;30.298;2023-08-08T22:10:47;185;183.2;179.6
57798;PMS7003;43626;53.866;30.298;2023-08-08T22:15:23;185.8;182;178.8
57798;PMS7003;43626;53.866;30.298;2023-08-08T22:21:03;182.8;177.3;173.3
57798;PMS7003;43626;53.866;30.298;2023-08-08T22:25:23;190.8;185;179.8
57798;PMS7003;43626;53.866;30.298;2023-08-08T22:30:41;180.2;173.6;169.6
57798;PMS7003;43626;53.866;30.298;2023-08-08T22:35:37;187.6;183.2;179
57798;PMS7003;43626;53.866;30.298;2023-08-08T22:40:47;205.2;202.2;198.8
57798;PMS7003;43626;53.866;30.298;2023-08-08T22:45:41;185.8;180;175.8
57798;PMS7003;43626;53.866;30.298;2023-08-08T22:50:53;220.8;219.8;216.6
57798;PMS7003;43626;53.866;30.298;2023-08-08T22:55:23;219.8;218.8;216
57798;PMS7003;43626;53.866;30.298;2023-08-08T23:00:37;211;208.8;205.6
57798;PMS7003;43626;53.866;30.298;2023-08-08T23:05:23;218.2;216.2;213.2
57798;PMS7003;43626;53.866;30.298;2023-08-08T23:10:37;206.6;205.4;202.4
57798;PMS7003;43626;53.866;30.298;2023-08-08T23:15:37;220.2;219.4;216.8
57798;PMS7003;43626;53.866;30.298;2023-08-08T23:20:47;231.8;230.8;229.3
57798;PMS7003;43626;53.866;30.298;2023-08-08T23:26:03;213.6;212.8;210.8
57798;PMS7003;43626;53.866;30.298;2023-08-08T23:30:23;217.6;216.8;213.8
57798;PMS7003;43626;53.866;30.298;2023-08-08T23:35:37;220.6;219.8;218
57798;PMS7003;43626;53.866;30.298;2023-08-08T23:40:47;197.6;196.6;195.2
57798;PMS7003;43626;53.866;30.298;2023-08-08T23:45:37;193.4;192.2;190.6
57798;PMS7003;43626;53.866;30.298;2023-08-08T23:50:45;227.4;227.2;225.6
57798;PMS7003;43626;53.866;30.298;2023-08-08T23:55:51;204;203.4;201.4
